createdAt,value
2023-02-15T00:01:54.339Z,23.98
2023-02-15T00:04:22.981Z,22.13
2023-02-15T00:06:50.564Z,21.27
2023-02-15T00:09:17.544Z,20.92
2023-02-15T00:11:46.196Z,21.10
2023-02-15T00:14:20.352Z,20.02
2023-02-15T00:16:48.459Z,20.40
2023-02-15T00:19:17.191Z,21.67
2023-02-15T00:21:44.848Z,21.45
2023-02-15T00:24:13.982Z,21.25
2023-02-15T00:26:42.267Z,21.48
2023-02-15T00:29:10.747Z,20.33
2023-02-15T00:31:38.147Z,32.13
2023-02-15T00:34:14.265Z,25.60
2023-02-15T00:36:41.724Z,24.50
2023-02-15T00:39:08.777Z,24.65
2023-02-15T00:41:36.539Z,23.52
2023-02-15T00:44:04.809Z,22.17
2023-02-15T00:46:34.627Z,22.52
2023-02-15T00:49:01.629Z,22.27
2023-02-15T00:51:29.025Z,24.77
2023-02-15T00:53:56.520Z,23.98
2023-02-15T00:56:23.585Z,25.95
2023-02-15T00:58:50.429Z,25.75
2023-02-15T01:01:20.399Z,26.00
2023-02-15T01:03:47.888Z,25.17
2023-02-15T01:06:16.488Z,24.40
2023-02-15T01:08:45.060Z,29.65
2023-02-15T01:11:23.033Z,28.98
2023-02-15T01:13:56.673Z,27.25
2023-02-15T01:16:25.796Z,26.63
2023-02-15T01:18:52.819Z,27.20
2023-02-15T01:21:22.873Z,27.05
2023-02-15T01:23:50.273Z,26.88
2023-02-15T01:26:17.812Z,26.92
2023-02-15T01:28:45.348Z,26.83
2023-02-15T01:31:16.061Z,27.02
2023-02-15T01:33:46.523Z,29.13
2023-02-15T01:36:13.766Z,28.45
2023-02-15T01:38:41.152Z,28.58
2023-02-15T01:41:29.852Z,28.48
2023-02-15T01:44:02.767Z,29.85
2023-02-15T01:46:46.562Z,31.77
2023-02-15T01:49:17.746Z,30.42
2023-02-15T01:51:48.480Z,31.35
2023-02-15T01:54:45.925Z,29.65
2023-02-15T01:57:17.977Z,32.17
2023-02-15T01:59:49.713Z,34.08
2023-02-15T02:02:21.822Z,36.03
2023-02-15T02:04:50.839Z,30.58
2023-02-15T02:07:21.794Z,32.50
2023-02-15T02:09:49.786Z,32.78
2023-02-15T02:12:19.120Z,30.75
2023-02-15T02:14:48.236Z,30.30
2023-02-15T02:18:08.300Z,32.38
2023-02-15T02:20:54.046Z,30.75
2023-02-15T02:23:20.834Z,30.60
2023-02-15T02:25:47.524Z,32.78
2023-02-15T02:28:39.488Z,36.75
2023-02-15T02:31:43.250Z,38.45
2023-02-15T02:34:28.670Z,39.55
2023-02-15T02:37:25.725Z,37.70
2023-02-15T02:40:01.599Z,34.95
2023-02-15T02:42:41.203Z,34.13
2023-02-15T02:45:33.372Z,31.58
2023-02-15T02:48:07.411Z,30.92
2023-02-15T02:50:34.582Z,31.30
2023-02-15T02:53:01.484Z,31.10
2023-02-15T02:55:53.251Z,33.30
2023-02-15T02:58:46.062Z,31.30
2023-02-15T03:01:23.592Z,31.25
2023-02-15T03:03:56.844Z,32.50
2023-02-15T03:06:36.953Z,33.13
2023-02-15T03:09:42.778Z,30.88
2023-02-15T03:12:15.808Z,32.85
2023-02-15T03:14:52.906Z,34.33
2023-02-15T03:17:27.513Z,36.13
2023-02-15T03:19:58.857Z,35.05
2023-02-15T03:22:39.351Z,36.95
2023-02-15T03:25:26.416Z,34.88
2023-02-15T03:28:02.328Z,32.38
2023-02-15T03:30:31.333Z,38.40
2023-02-15T03:33:01.106Z,38.15
2023-02-15T03:35:46.821Z,35.45
2023-02-15T03:38:18.878Z,36.83
2023-02-15T03:41:06.829Z,35.55
2023-02-15T03:43:54.409Z,33.78
2023-02-15T03:46:45.967Z,31.15
2023-02-15T03:49:25.748Z,44.03
2023-02-15T03:51:56.641Z,35.20
2023-02-15T03:54:46.048Z,36.90
2023-02-15T03:57:34.282Z,34.67
2023-02-15T04:00:22.680Z,33.30
2023-02-15T04:03:10.267Z,32.45
2023-02-15T04:05:37.571Z,32.55
2023-02-15T04:08:04.981Z,31.27
2023-02-15T04:10:50.264Z,32.78
2023-02-15T04:13:17.235Z,34.65
2023-02-15T04:16:03.103Z,38.50
2023-02-15T04:19:14.912Z,38.20
2023-02-15T04:22:00.621Z,32.40
2023-02-15T04:24:46.092Z,31.13
2023-02-15T04:27:13.152Z,33.25
2023-02-15T04:29:40.148Z,30.98
2023-02-15T04:32:07.794Z,29.75
2023-02-15T04:34:34.909Z,29.30
2023-02-15T04:37:01.860Z,29.30
2023-02-15T04:39:29.029Z,31.58
2023-02-15T04:41:55.869Z,31.05
2023-02-15T04:44:22.764Z,31.02
2023-02-15T04:46:49.706Z,30.25
2023-02-15T04:49:16.970Z,29.63
2023-02-15T04:51:43.808Z,33.28
2023-02-15T04:54:10.752Z,32.92
2023-02-15T04:56:38.926Z,35.55
2023-02-15T04:59:06.123Z,35.80
2023-02-15T05:01:32.958Z,38.88
2023-02-15T05:04:00.561Z,38.80
2023-02-15T05:06:27.339Z,34.83
2023-02-15T05:08:54.462Z,33.95
2023-02-15T05:11:21.441Z,33.20
2023-02-15T05:13:48.339Z,34.83
2023-02-15T05:16:15.697Z,36.67
2023-02-15T05:18:42.764Z,45.85
2023-02-15T05:21:09.846Z,41.75
2023-02-15T05:23:37.341Z,44.55
2023-02-15T05:26:23.115Z,45.65
2023-02-15T05:28:50.249Z,41.97
2023-02-15T05:31:20.840Z,43.95
2023-02-15T05:33:49.016Z,43.00
2023-02-15T05:36:15.885Z,45.08
2023-02-15T05:38:42.994Z,39.58
2023-02-15T05:41:11.614Z,40.13
2023-02-15T05:43:39.690Z,39.55
2023-02-15T05:46:07.615Z,44.50
2023-02-15T05:48:35.732Z,40.47
2023-02-15T05:51:08.562Z,38.70
2023-02-15T05:53:38.389Z,38.08
2023-02-15T05:56:06.859Z,42.15
2023-02-15T05:58:40.288Z,41.00
2023-02-15T06:01:12.125Z,41.47
2023-02-15T06:03:39.781Z,44.97
2023-02-15T06:06:07.845Z,51.88
2023-02-15T06:08:36.298Z,48.67
2023-02-15T06:11:03.705Z,56.83
2023-02-15T06:13:31.621Z,49.70
2023-02-15T06:15:58.619Z,51.20
2023-02-15T06:18:26.884Z,52.80
2023-02-15T06:20:54.464Z,56.00
2023-02-15T06:23:21.889Z,60.67
2023-02-15T06:25:48.866Z,62.08
2023-02-15T06:28:16.039Z,69.68
2023-02-15T06:30:44.239Z,69.47
2023-02-15T06:33:11.566Z,81.55
2023-02-15T06:35:38.490Z,81.97
2023-02-15T06:38:05.527Z,80.38
2023-02-15T06:40:32.281Z,79.85
2023-02-15T06:42:59.281Z,78.35
2023-02-15T06:45:26.299Z,79.75
2023-02-15T06:47:53.320Z,77.75
2023-02-15T06:50:20.253Z,73.43
2023-02-15T06:52:47.581Z,76.28
2023-02-15T06:55:16.772Z,73.22
2023-02-15T06:57:43.568Z,73.90
2023-02-15T07:00:10.930Z,69.07
2023-02-15T07:02:38.119Z,74.55
2023-02-15T07:05:06.477Z,69.25
2023-02-15T07:07:33.843Z,55.95
2023-02-15T07:10:00.673Z,58.42
2023-02-15T07:12:46.935Z,54.90
2023-02-15T07:15:21.745Z,48.47
2023-02-15T07:17:49.571Z,37.70
2023-02-15T07:20:22.594Z,40.47
2023-02-15T07:22:50.524Z,40.55
2023-02-15T07:25:17.834Z,40.80
2023-02-15T07:27:46.266Z,39.92
2023-02-15T07:30:16.467Z,42.38
2023-02-15T07:33:05.282Z,35.30
2023-02-15T07:35:33.346Z,29.02
2023-02-15T07:38:00.510Z,24.48
2023-02-15T07:40:27.439Z,23.10
2023-02-15T07:42:55.957Z,23.75
2023-02-15T07:45:23.450Z,23.48
2023-02-15T07:47:50.360Z,23.23
2023-02-15T07:50:17.646Z,22.60
2023-02-15T07:52:45.808Z,21.23
2023-02-15T07:55:14.098Z,20.95
2023-02-15T07:57:47.793Z,21.83
2023-02-15T08:00:16.874Z,20.73
2023-02-15T08:03:11.061Z,23.15
2023-02-15T08:05:38.929Z,22.17
2023-02-15T08:08:06.711Z,22.45
2023-02-15T08:10:52.918Z,21.38
2023-02-15T08:13:19.934Z,20.25
2023-02-15T08:15:51.284Z,23.23
2023-02-15T08:18:18.364Z,22.08
2023-02-15T08:20:50.974Z,21.08
2023-02-15T08:23:17.886Z,22.17
2023-02-15T08:25:44.923Z,25.08
2023-02-15T08:28:12.263Z,21.38
2023-02-15T08:30:39.058Z,21.80
2023-02-15T08:33:05.980Z,20.48
2023-02-15T08:35:32.789Z,20.38
2023-02-15T08:37:59.671Z,20.63
2023-02-15T08:40:26.528Z,20.83
2023-02-15T08:42:53.511Z,21.33
2023-02-15T08:45:20.370Z,19.25
2023-02-15T08:47:47.563Z,19.85
2023-02-15T08:50:14.595Z,20.25
2023-02-15T08:52:42.058Z,18.27
2023-02-15T08:55:08.992Z,21.13
2023-02-15T08:57:36.727Z,19.17
2023-02-15T09:00:06.196Z,21.55
2023-02-15T09:02:33.669Z,18.90
2023-02-15T09:05:00.598Z,19.02
2023-02-15T09:07:27.656Z,17.83
2023-02-15T09:09:54.409Z,18.35
2023-02-15T09:12:21.419Z,17.90
2023-02-15T09:14:48.301Z,19.58
2023-02-15T09:17:16.157Z,17.92
2023-02-15T09:19:43.021Z,18.02
2023-02-15T09:22:10.722Z,20.02
2023-02-15T09:24:37.618Z,17.90
2023-02-15T09:27:04.549Z,19.88
2023-02-15T09:29:31.447Z,17.63
2023-02-15T09:31:58.318Z,19.95
2023-02-15T09:34:25.349Z,18.95
2023-02-15T09:36:52.989Z,25.05
2023-02-15T09:39:21.779Z,25.75
2023-02-15T09:42:08.961Z,17.25
2023-02-15T09:45:18.602Z,16.40
2023-02-15T09:48:18.465Z,16.40
2023-02-15T09:51:11.421Z,18.63
2023-02-15T09:53:53.782Z,19.73
2023-02-15T09:56:26.601Z,17.75
2023-02-15T09:59:21.006Z,21.35
2023-02-15T10:02:25.906Z,18.85
2023-02-15T10:05:16.426Z,18.38
2023-02-15T10:08:09.784Z,20.05
2023-02-15T10:10:42.528Z,19.80
2023-02-15T10:13:31.892Z,19.15
2023-02-15T10:16:10.966Z,19.08
2023-02-15T10:18:40.672Z,22.05
2023-02-15T10:21:11.256Z,21.48
2023-02-15T10:24:02.762Z,21.13
2023-02-15T10:26:35.100Z,21.35
2023-02-15T10:29:18.397Z,20.92
2023-02-15T10:31:59.035Z,22.48
2023-02-15T10:34:40.407Z,17.15
2023-02-15T10:39:59.473Z,17.67
2023-02-15T10:43:00.777Z,16.85
2023-02-15T10:45:47.036Z,17.38
2023-02-15T10:48:20.206Z,16.20
2023-02-15T10:50:58.166Z,15.35
2023-02-15T10:53:45.211Z,15.65
2023-02-15T10:56:30.572Z,16.55
2023-02-15T10:59:16.482Z,14.38
2023-02-15T11:01:43.690Z,13.98
2023-02-15T11:04:38.476Z,14.38
2023-02-15T11:07:28.037Z,15.05
2023-02-15T11:10:18.380Z,15.48
2023-02-15T11:12:48.334Z,14.82
2023-02-15T11:15:29.187Z,15.43
2023-02-15T11:18:20.725Z,16.42
2023-02-15T11:20:57.338Z,16.73
2023-02-15T11:23:27.802Z,14.88
2023-02-15T11:26:01.365Z,15.55
2023-02-15T11:28:37.887Z,15.00
2023-02-15T11:31:17.009Z,13.30
2023-02-15T11:33:48.838Z,13.20
2023-02-15T11:36:23.950Z,14.30
2023-02-15T11:38:59.110Z,14.75
2023-02-15T11:41:33.154Z,13.73
2023-02-15T11:44:09.606Z,15.40
2023-02-15T11:46:38.333Z,15.32
2023-02-15T11:49:35.155Z,14.55
2023-02-15T11:52:06.082Z,12.60
2023-02-15T11:54:37.077Z,14.25
2023-02-15T11:57:17.135Z,14.73
2023-02-15T11:59:51.790Z,14.65
2023-02-15T12:02:23.549Z,20.45
2023-02-15T12:05:08.200Z,13.73
2023-02-15T12:07:45.148Z,16.00
2023-02-15T12:10:35.060Z,13.90
2023-02-15T12:13:18.902Z,15.77
2023-02-15T12:15:56.184Z,12.55
2023-02-15T12:18:42.356Z,13.80
2023-02-15T12:21:31.661Z,13.70
2023-02-15T12:24:05.409Z,14.38
2023-02-15T12:26:36.198Z,16.73
2023-02-15T12:29:16.338Z,18.20
2023-02-15T12:31:47.647Z,17.33
2023-02-15T12:37:00.590Z,14.50
2023-02-15T12:39:32.392Z,13.38
2023-02-15T12:42:01.660Z,14.63
2023-02-15T12:44:38.121Z,14.77
2023-02-15T12:47:05.126Z,12.02
2023-02-15T12:49:38.817Z,11.75
2023-02-15T12:52:24.063Z,12.77
2023-02-15T12:54:51.927Z,16.98
2023-02-15T12:57:35.375Z,15.85
2023-02-15T13:00:06.998Z,13.57
2023-02-15T13:02:48.794Z,13.05
2023-02-15T13:05:44.076Z,14.13
2023-02-15T13:08:20.363Z,12.85
2023-02-15T13:11:10.867Z,14.90
2023-02-15T13:14:19.078Z,10.55
2023-02-15T13:16:48.744Z,10.40
2023-02-15T13:19:27.501Z,11.80
2023-02-15T13:21:57.882Z,10.85
2023-02-15T13:24:33.476Z,11.32
2023-02-15T13:27:14.500Z,11.35
2023-02-15T13:29:45.858Z,11.85
2023-02-15T13:32:34.908Z,11.00
2023-02-15T13:35:06.125Z,10.63
2023-02-15T13:37:43.632Z,11.25
2023-02-15T13:40:20.878Z,12.45
2023-02-15T13:43:01.041Z,12.52
2023-02-15T13:45:40.178Z,16.00
2023-02-15T13:48:45.017Z,14.07
2023-02-15T13:51:45.666Z,11.15
2023-02-15T13:54:43.363Z,13.93
2023-02-15T13:57:28.571Z,15.30
2023-02-15T14:00:29.517Z,21.88
2023-02-15T14:03:40.383Z,12.52
2023-02-15T14:06:26.101Z,13.38
2023-02-15T14:09:42.408Z,13.68
2023-02-15T14:12:24.840Z,11.43
2023-02-15T14:15:09.822Z,12.98
2023-02-15T14:18:38.246Z,18.45
2023-02-15T14:21:27.804Z,13.73
2023-02-15T14:24:00.726Z,15.02
2023-02-15T14:26:47.424Z,13.80
2023-02-15T14:30:38.107Z,14.90
2023-02-15T14:33:32.628Z,15.13
2023-02-15T14:36:01.897Z,17.15
2023-02-15T14:39:31.298Z,15.68
2023-02-15T14:42:21.731Z,15.13
2023-02-15T14:45:02.524Z,14.90
2023-02-15T14:47:37.543Z,13.77
2023-02-15T14:50:34.755Z,17.15
2023-02-15T14:53:23.978Z,13.90
2023-02-15T14:56:08.563Z,16.67
2023-02-15T14:58:36.194Z,16.63
2023-02-15T15:01:11.478Z,17.02
2023-02-15T15:03:57.403Z,13.52
2023-02-15T15:06:31.517Z,14.93
2023-02-15T15:09:23.577Z,15.40
2023-02-15T15:11:52.898Z,17.85
2023-02-15T15:14:35.179Z,16.17
2023-02-15T15:17:05.089Z,17.25
2023-02-15T15:19:52.240Z,19.17
2023-02-15T15:22:30.618Z,22.08
2023-02-15T15:25:05.393Z,19.77
2023-02-15T15:27:55.707Z,19.73
2023-02-15T15:31:00.638Z,18.73
2023-02-15T15:34:11.414Z,21.05
2023-02-15T15:37:09.202Z,23.13
2023-02-15T15:39:54.628Z,24.45
2023-02-15T15:42:39.411Z,38.42
2023-02-15T15:45:27.471Z,27.23
2023-02-15T15:48:14.596Z,27.77
2023-02-15T15:50:42.786Z,44.97
2023-02-15T15:53:22.418Z,33.63
2023-02-15T15:55:55.185Z,32.25
2023-02-15T15:58:23.863Z,34.65
2023-02-15T16:01:00.506Z,40.33
2023-02-15T16:03:29.306Z,49.38
2023-02-15T16:06:01.409Z,57.00
2023-02-15T16:08:34.983Z,66.88
2023-02-15T16:11:12.055Z,52.83
2023-02-15T16:13:42.338Z,50.85
2023-02-15T16:16:09.696Z,61.05
2023-02-15T16:18:43.366Z,57.47
2023-02-15T16:21:35.687Z,50.10
2023-02-15T16:24:18.633Z,38.60
2023-02-15T16:27:04.707Z,37.50
2023-02-15T16:29:34.204Z,43.17
2023-02-15T16:32:07.740Z,48.22
2023-02-15T16:34:34.802Z,51.25
2023-02-15T16:37:19.406Z,47.05
2023-02-15T16:39:49.131Z,44.53
2023-02-15T16:42:17.967Z,44.25
2023-02-15T16:44:53.379Z,43.03
2023-02-15T16:47:28.221Z,38.92
2023-02-15T16:50:00.732Z,35.50
2023-02-15T16:52:29.127Z,40.25
2023-02-15T16:54:59.261Z,43.17
2023-02-15T16:57:34.041Z,50.33
2023-02-15T17:00:18.007Z,48.05
2023-02-15T17:02:56.917Z,50.17
2023-02-15T17:05:24.308Z,50.58
2023-02-15T17:08:05.946Z,50.67
2023-02-15T17:10:40.222Z,46.00
2023-02-15T17:13:18.000Z,51.55
2023-02-15T17:16:06.113Z,51.97
2023-02-15T17:18:44.711Z,55.63
2023-02-15T17:21:17.789Z,80.53
2023-02-15T17:23:48.368Z,86.63
2023-02-15T17:26:27.857Z,98.68
2023-02-15T17:29:11.976Z,62.22
2023-02-15T17:31:39.505Z,51.15
2023-02-15T17:34:06.859Z,43.17
2023-02-15T17:36:33.797Z,50.15
2023-02-15T17:39:06.672Z,101.30
2023-02-15T17:41:35.852Z,100.97
2023-02-15T17:44:04.000Z,112.55
2023-02-15T17:46:37.238Z,136.82
2023-02-15T17:49:05.390Z,96.35
2023-02-15T17:51:33.368Z,64.53
2023-02-15T17:54:19.135Z,39.45
2023-02-15T17:56:46.298Z,49.13
2023-02-15T17:59:14.356Z,64.18
2023-02-15T18:02:07.204Z,60.92
2023-02-15T18:04:56.224Z,54.45
2023-02-15T18:07:42.459Z,57.60
2023-02-15T18:10:37.248Z,65.65
2023-02-15T18:13:04.753Z,66.15
2023-02-15T18:15:31.930Z,66.50
2023-02-15T18:18:03.264Z,72.13
2023-02-15T18:20:37.268Z,87.97
2023-02-15T18:23:04.278Z,84.70
2023-02-15T18:25:31.103Z,84.00
2023-02-15T18:27:57.954Z,74.90
2023-02-15T18:30:27.738Z,64.32
2023-02-15T18:32:57.328Z,64.18
2023-02-15T18:35:28.626Z,60.28
2023-02-15T18:40:27.423Z,52.50
2023-02-15T18:42:57.030Z,56.00
2023-02-15T18:45:32.985Z,46.88
2023-02-15T18:48:00.314Z,48.92
2023-02-15T18:50:31.291Z,52.20
2023-02-15T18:52:58.883Z,53.10
2023-02-15T18:55:28.088Z,53.90
2023-02-15T18:57:57.417Z,54.22
2023-02-15T19:00:28.886Z,60.25
2023-02-15T19:02:59.452Z,48.03
2023-02-15T19:05:28.484Z,38.90
2023-02-15T19:07:57.380Z,47.72
2023-02-15T19:10:27.203Z,40.92
2023-02-15T19:12:55.947Z,46.28
2023-02-15T19:15:28.492Z,60.90
2023-02-15T19:17:55.563Z,64.25
2023-02-15T19:20:29.891Z,77.10
2023-02-15T19:22:58.374Z,43.53
2023-02-15T19:25:31.545Z,37.50
2023-02-15T19:27:58.946Z,49.75
2023-02-15T19:30:32.335Z,46.95
2023-02-15T19:33:00.067Z,40.70
2023-02-15T19:35:31.829Z,39.53
2023-02-15T19:38:06.265Z,38.72
2023-02-15T19:40:35.875Z,38.92
2023-02-15T19:43:03.965Z,41.70
2023-02-15T19:45:33.001Z,40.15
2023-02-15T19:48:02.981Z,30.48
2023-02-15T19:50:33.448Z,33.13
2023-02-15T19:53:02.866Z,33.63
2023-02-15T19:55:37.996Z,40.90
2023-02-15T19:58:12.148Z,28.23
2023-02-15T20:00:39.922Z,28.30
2023-02-15T20:03:06.725Z,26.98
2023-02-15T20:05:38.320Z,25.27
2023-02-15T20:08:10.176Z,30.75
2023-02-15T20:10:37.178Z,40.38
2023-02-15T20:13:04.081Z,37.00
2023-02-15T20:15:34.547Z,47.38
2023-02-15T20:18:04.455Z,45.65
2023-02-15T20:20:51.772Z,40.10
2023-02-15T20:23:35.766Z,39.47
2023-02-15T20:26:14.038Z,45.72
2023-02-15T20:28:41.141Z,43.10
2023-02-15T20:31:14.834Z,41.67
2023-02-15T20:33:42.120Z,40.03
2023-02-15T20:36:17.141Z,41.50
2023-02-15T20:38:44.764Z,53.67
2023-02-15T20:41:37.208Z,45.55
2023-02-15T20:44:35.842Z,43.80
2023-02-15T20:47:02.883Z,49.95
2023-02-15T20:49:29.689Z,48.58
2023-02-15T20:51:57.331Z,40.20
2023-02-15T20:54:27.235Z,43.60
2023-02-15T20:56:57.318Z,50.97
2023-02-15T20:59:27.496Z,51.58
2023-02-15T21:01:59.317Z,49.53
2023-02-15T21:04:32.363Z,49.72
2023-02-15T21:07:00.726Z,50.00
2023-02-15T21:09:28.264Z,50.80
2023-02-15T21:11:58.274Z,51.75
2023-02-15T21:14:27.294Z,53.58
2023-02-15T21:16:54.204Z,51.47
2023-02-15T21:19:24.523Z,51.50
2023-02-15T21:21:53.338Z,53.20
2023-02-15T21:24:26.925Z,52.78
2023-02-15T21:26:55.114Z,50.75
2023-02-15T21:29:28.044Z,52.00
2023-02-15T21:31:55.305Z,52.00
2023-02-15T21:34:22.116Z,36.33
2023-02-15T21:36:50.826Z,29.58
2023-02-15T21:39:29.533Z,26.00
2023-02-15T21:42:15.110Z,23.30
2023-02-15T21:45:00.909Z,21.45
2023-02-15T21:47:48.720Z,24.08
2023-02-15T21:50:40.031Z,22.08
2023-02-15T21:53:10.735Z,22.00
2023-02-15T21:55:37.724Z,25.60
2023-02-15T21:58:05.989Z,25.35
2023-02-15T22:00:34.109Z,28.58
2023-02-15T22:03:01.999Z,27.55
2023-02-15T22:05:33.233Z,23.23
2023-02-15T22:08:00.818Z,22.83
2023-02-15T22:10:31.619Z,21.80
2023-02-15T22:15:37.204Z,22.23
2023-02-15T22:18:05.572Z,23.58
2023-02-15T22:20:32.528Z,24.95
2023-02-15T22:22:59.518Z,27.05
2023-02-15T22:25:27.415Z,29.10
2023-02-15T22:27:55.009Z,31.40
2023-02-15T22:30:29.577Z,29.70
2023-02-15T22:32:57.644Z,28.05
2023-02-15T22:35:33.056Z,29.20
2023-02-15T22:38:00.447Z,28.10
2023-02-15T22:40:33.527Z,35.33
2023-02-15T22:43:03.095Z,39.97
2023-02-15T22:45:31.478Z,37.50
2023-02-15T22:48:00.816Z,34.05
2023-02-15T22:50:32.571Z,30.52
2023-02-15T22:53:01.356Z,29.40
2023-02-15T22:55:33.799Z,30.05
2023-02-15T22:58:01.150Z,30.50
2023-02-15T23:00:32.311Z,28.70
2023-02-15T23:05:28.940Z,30.48
2023-02-15T23:07:56.227Z,31.48
2023-02-15T23:10:26.112Z,34.45
2023-02-15T23:13:14.680Z,44.83
2023-02-15T23:15:43.538Z,34.35
2023-02-15T23:18:20.577Z,29.65
2023-02-15T23:20:52.357Z,28.70
2023-02-15T23:23:24.927Z,27.98
2023-02-15T23:25:52.015Z,32.10
2023-02-15T23:28:22.065Z,26.88
2023-02-15T23:30:49.693Z,18.43
2023-02-15T23:33:19.237Z,24.88
2023-02-15T23:35:46.378Z,23.50
2023-02-15T23:38:28.731Z,25.10
2023-02-15T23:41:19.831Z,22.05
2023-02-15T23:44:04.791Z,19.17
2023-02-15T23:46:46.899Z,17.33
2023-02-15T23:49:16.601Z,18.65
2023-02-15T23:51:52.085Z,17.63
2023-02-15T23:54:21.631Z,20.48
2023-02-15T23:56:55.177Z,20.02
2023-02-15T23:59:25.395Z,23.45
